sensor_id;sensor_type;location;lat;lon;timestamp;temperature;humidity
9425;DHT22;17139;52.140;11.636;2023-04-09T00:00:31;5.60;56.50
9425;DHT22;17139;52.140;11.636;2023-04-09T00:02:59;5.40;56.70
9425;DHT22;17139;52.140;11.636;2023-04-09T00:05:26;5.20;56.90
9425;DHT22;17139;52.140;11.636;2023-04-09T00:07:53;5.10;57.00
9425;DHT22;17139;52.140;11.636;2023-04-09T00:10:20;5.00;57.00
9425;DHT22;17139;52.140;11.636;2023-04-09T00:12:48;5.00;57.00
9425;DHT22;17139;52.140;11.636;2023-04-09T00:15:15;5.00;57.00
9425;DHT22;17139;52.140;11.636;2023-04-09T00:17:42;4.90;57.00
9425;DHT22;17139;52.140;11.636;2023-04-09T00:20:11;4.90;57.00
9425;DHT22;17139;52.140;11.636;2023-04-09T00:22:38;4.80;56.90
9425;DHT22;17139;52.140;11.636;2023-04-09T00:25:06;4.80;56.90
9425;DHT22;17139;52.140;11.636;2023-04-09T00:27:34;4.80;57.10
9425;DHT22;17139;52.140;11.636;2023-04-09T00:30:01;4.70;57.00
9425;DHT22;17139;52.140;11.636;2023-04-09T00:32:28;4.70;56.90
9425;DHT22;17139;52.140;11.636;2023-04-09T00:34:56;4.70;56.90
9425;DHT22;17139;52.140;11.636;2023-04-09T00:37:24;4.70;56.90
9425;DHT22;17139;52.140;11.636;2023-04-09T00:39:52;4.70;56.90
9425;DHT22;17139;52.140;11.636;2023-04-09T00:42:19;4.70;56.90
9425;DHT22;17139;52.140;11.636;2023-04-09T00:44:46;5.30;57.60
9425;DHT22;17139;52.140;11.636;2023-04-09T00:47:14;6.10;56.80
9425;DHT22;17139;52.140;11.636;2023-04-09T00:49:41;5.80;55.80
9425;DHT22;17139;52.140;11.636;2023-04-09T00:52:10;5.50;56.00
9425;DHT22;17139;52.140;11.636;2023-04-09T00:54:39;5.20;56.30
9425;DHT22;17139;52.140;11.636;2023-04-09T00:57:06;5.10;56.60
9425;DHT22;17139;52.140;11.636;2023-04-09T00:59:33;5.00;56.80
9425;DHT22;17139;52.140;11.636;2023-04-09T01:02:01;4.90;56.90
9425;DHT22;17139;52.140;11.636;2023-04-09T01:04:28;4.80;56.90
9425;DHT22;17139;52.140;11.636;2023-04-09T01:07:00;5.00;57.60
9425;DHT22;17139;52.140;11.636;2023-04-09T01:09:34;5.00;56.90
9425;DHT22;17139;52.140;11.636;2023-04-09T01:12:11;5.20;57.40
9425;DHT22;17139;52.140;11.636;2023-04-09T01:14:46;5.20;56.80
9425;DHT22;17139;52.140;11.636;2023-04-09T01:17:20;5.20;56.70
9425;DHT22;17139;52.140;11.636;2023-04-09T01:19:53;5.30;56.70
9425;DHT22;17139;52.140;11.636;2023-04-09T01:22:31;5.40;56.60
9425;DHT22;17139;52.140;11.636;2023-04-09T01:25:08;5.40;56.60
9425;DHT22;17139;52.140;11.636;2023-04-09T01:27:45;5.40;56.60
9425;DHT22;17139;52.140;11.636;2023-04-09T01:30:19;5.40;56.60
9425;DHT22;17139;52.140;11.636;2023-04-09T01:32:48;5.40;56.50
9425;DHT22;17139;52.140;11.636;2023-04-09T01:35:16;6.00;57.40
9425;DHT22;17139;52.140;11.636;2023-04-09T01:37:44;6.70;56.00
9425;DHT22;17139;52.140;11.636;2023-04-09T01:40:12;6.30;55.80
9425;DHT22;17139;52.140;11.636;2023-04-09T01:42:40;6.10;56.10
9425;DHT22;17139;52.140;11.636;2023-04-09T01:45:09;5.90;56.30
9425;DHT22;17139;52.140;11.636;2023-04-09T01:47:40;5.90;56.50
9425;DHT22;17139;52.140;11.636;2023-04-09T01:50:07;5.90;56.50
9425;DHT22;17139;52.140;11.636;2023-04-09T01:52:35;5.80;56.60
9425;DHT22;17139;52.140;11.636;2023-04-09T01:55:02;5.70;56.60
9425;DHT22;17139;52.140;11.636;2023-04-09T01:57:30;5.70;56.90
9425;DHT22;17139;52.140;11.636;2023-04-09T01:59:57;5.60;56.60
9425;DHT22;17139;52.140;11.636;2023-04-09T02:02:30;5.60;56.60
9425;DHT22;17139;52.140;11.636;2023-04-09T02:04:59;5.90;57.40
9425;DHT22;17139;52.140;11.636;2023-04-09T02:07:33;5.80;56.30
9425;DHT22;17139;52.140;11.636;2023-04-09T02:10:03;5.70;56.30
9425;DHT22;17139;52.140;11.636;2023-04-09T02:12:32;5.60;56.50
9425;DHT22;17139;52.140;11.636;2023-04-09T02:15:02;5.50;56.60
9425;DHT22;17139;52.140;11.636;2023-04-09T02:17:31;5.50;56.50
9425;DHT22;17139;52.140;11.636;2023-04-09T02:20:00;5.50;56.50
9425;DHT22;17139;52.140;11.636;2023-04-09T02:22:27;5.40;56.50
9425;DHT22;17139;52.140;11.636;2023-04-09T02:24:54;5.40;56.60
9425;DHT22;17139;52.140;11.636;2023-04-09T02:27:21;5.40;56.60
9425;DHT22;17139;52.140;11.636;2023-04-09T02:29:49;6.10;57.30
9425;DHT22;17139;52.140;11.636;2023-04-09T02:32:17;6.90;55.50
9425;DHT22;17139;52.140;11.636;2023-04-09T02:34:44;6.50;54.60
9425;DHT22;17139;52.140;11.636;2023-04-09T02:37:13;6.20;55.90
9425;DHT22;17139;52.140;11.636;2023-04-09T02:39:40;5.90;56.30
9425;DHT22;17139;52.140;11.636;2023-04-09T02:42:08;5.80;56.60
9425;DHT22;17139;52.140;11.636;2023-04-09T02:44:35;5.60;56.60
9425;DHT22;17139;52.140;11.636;2023-04-09T02:47:02;5.50;56.70
9425;DHT22;17139;52.140;11.636;2023-04-09T02:49:29;5.40;56.90
9425;DHT22;17139;52.140;11.636;2023-04-09T02:51:57;5.40;57.00
9425;DHT22;17139;52.140;11.636;2023-04-09T02:54:26;5.30;57.00
9425;DHT22;17139;52.140;11.636;2023-04-09T02:56:53;5.30;57.20
9425;DHT22;17139;52.140;11.636;2023-04-09T02:59:21;5.70;57.60
9425;DHT22;17139;52.140;11.636;2023-04-09T03:01:48;5.80;56.70
9425;DHT22;17139;52.140;11.636;2023-04-09T03:04:15;5.70;56.60
9425;DHT22;17139;52.140;11.636;2023-04-09T03:06:43;5.60;56.80
9425;DHT22;17139;52.140;11.636;2023-04-09T03:09:10;5.60;56.80
9425;DHT22;17139;52.140;11.636;2023-04-09T03:11:39;5.70;56.80
9425;DHT22;17139;52.140;11.636;2023-04-09T03:14:06;5.70;56.80
9425;DHT22;17139;52.140;11.636;2023-04-09T03:16:33;5.70;56.70
9425;DHT22;17139;52.140;11.636;2023-04-09T03:19:01;5.70;56.70
9425;DHT22;17139;52.140;11.636;2023-04-09T03:21:28;5.70;56.60
9425;DHT22;17139;52.140;11.636;2023-04-09T03:23:55;5.90;57.30
9425;DHT22;17139;52.140;11.636;2023-04-09T03:26:22;6.50;56.30
9425;DHT22;17139;52.140;11.636;2023-04-09T03:28:51;6.30;56.10
9425;DHT22;17139;52.140;11.636;2023-04-09T03:31:18;6.10;56.20
9425;DHT22;17139;52.140;11.636;2023-04-09T03:33:45;6.00;56.20
9425;DHT22;17139;52.140;11.636;2023-04-09T03:36:12;5.90;56.40
9425;DHT22;17139;52.140;11.636;2023-04-09T03:38:40;5.80;56.40
9425;DHT22;17139;52.140;11.636;2023-04-09T03:41:07;5.70;56.50
9425;DHT22;17139;52.140;11.636;2023-04-09T03:43:34;5.80;56.60
9425;DHT22;17139;52.140;11.636;2023-04-09T03:46:10;5.70;56.50
9425;DHT22;17139;52.140;11.636;2023-04-09T03:48:38;6.30;57.30
9425;DHT22;17139;52.140;11.636;2023-04-09T03:51:05;6.80;55.80
9425;DHT22;17139;52.140;11.636;2023-04-09T03:53:33;6.60;55.00
9425;DHT22;17139;52.140;11.636;2023-04-09T03:56:00;6.40;55.10
9425;DHT22;17139;52.140;11.636;2023-04-09T03:58:27;6.20;56.20
9425;DHT22;17139;52.140;11.636;2023-04-09T04:00:54;6.10;56.40
9425;DHT22;17139;52.140;11.636;2023-04-09T04:03:23;6.00;56.50
9425;DHT22;17139;52.140;11.636;2023-04-09T04:05:50;5.90;56.50
9425;DHT22;17139;52.140;11.636;2023-04-09T04:08:18;5.90;56.60
9425;DHT22;17139;52.140;11.636;2023-04-09T04:10:45;5.90;56.90
9425;DHT22;17139;52.140;11.636;2023-04-09T04:13:12;6.10;56.90
9425;DHT22;17139;52.140;11.636;2023-04-09T04:15:40;6.00;56.30
9425;DHT22;17139;52.140;11.636;2023-04-09T04:18:08;5.90;56.40
9425;DHT22;17139;52.140;11.636;2023-04-09T04:20:37;5.70;56.40
9425;DHT22;17139;52.140;11.636;2023-04-09T04:23:04;5.60;56.50
9425;DHT22;17139;52.140;11.636;2023-04-09T04:25:32;5.60;56.70
9425;DHT22;17139;52.140;11.636;2023-04-09T04:27:59;5.50;56.70
9425;DHT22;17139;52.140;11.636;2023-04-09T04:30:26;5.50;56.80
9425;DHT22;17139;52.140;11.636;2023-04-09T04:32:53;5.50;56.90
9425;DHT22;17139;52.140;11.636;2023-04-09T04:35:21;6.40;56.00
9425;DHT22;17139;52.140;11.636;2023-04-09T04:37:50;6.30;55.90
9425;DHT22;17139;52.140;11.636;2023-04-09T04:40:17;6.10;56.00
9425;DHT22;17139;52.140;11.636;2023-04-09T04:42:44;6.80;55.40
9425;DHT22;17139;52.140;11.636;2023-04-09T04:45:11;6.50;54.40
9425;DHT22;17139;52.140;11.636;2023-04-09T04:47:38;6.20;55.80
9425;DHT22;17139;52.140;11.636;2023-04-09T04:50:07;6.00;56.10
9425;DHT22;17139;52.140;11.636;2023-04-09T04:52:35;5.90;56.30
9425;DHT22;17139;52.140;11.636;2023-04-09T04:55:05;5.80;56.40
9425;DHT22;17139;52.140;11.636;2023-04-09T04:57:32;5.80;56.50
9425;DHT22;17139;52.140;11.636;2023-04-09T05:00:00;5.80;56.60
9425;DHT22;17139;52.140;11.636;2023-04-09T05:02:27;5.80;56.60
9425;DHT22;17139;52.140;11.636;2023-04-09T05:04:54;5.80;56.60
9425;DHT22;17139;52.140;11.636;2023-04-09T05:07:21;5.80;56.60
9425;DHT22;17139;52.140;11.636;2023-04-09T05:09:48;5.80;56.60
9425;DHT22;17139;52.140;11.636;2023-04-09T05:12:17;5.80;56.50
9425;DHT22;17139;52.140;11.636;2023-04-09T05:14:44;5.80;56.40
9425;DHT22;17139;52.140;11.636;2023-04-09T05:17:11;5.80;56.30
9425;DHT22;17139;52.140;11.636;2023-04-09T05:19:38;5.80;56.40
9425;DHT22;17139;52.140;11.636;2023-04-09T05:22:05;5.80;56.50
9425;DHT22;17139;52.140;11.636;2023-04-09T05:24:33;5.80;56.50
9425;DHT22;17139;52.140;11.636;2023-04-09T05:27:00;5.80;56.50
9425;DHT22;17139;52.140;11.636;2023-04-09T05:29:29;5.80;56.50
9425;DHT22;17139;52.140;11.636;2023-04-09T05:31:56;6.20;56.90
9425;DHT22;17139;52.140;11.636;2023-04-09T05:34:23;6.30;56.10
9425;DHT22;17139;52.140;11.636;2023-04-09T05:36:51;6.20;56.00
9425;DHT22;17139;52.140;11.636;2023-04-09T05:39:19;6.70;55.30
9425;DHT22;17139;52.140;11.636;2023-04-09T05:41:46;6.60;54.60
9425;DHT22;17139;52.140;11.636;2023-04-09T05:44:13;6.40;54.80
9425;DHT22;17139;52.140;11.636;2023-04-09T05:46:42;6.20;55.80
9425;DHT22;17139;52.140;11.636;2023-04-09T05:49:09;6.10;55.80
9425;DHT22;17139;52.140;11.636;2023-04-09T05:51:37;5.90;56.00
9425;DHT22;17139;52.140;11.636;2023-04-09T05:54:04;5.90;56.00
9425;DHT22;17139;52.140;11.636;2023-04-09T05:56:31;5.90;56.20
9425;DHT22;17139;52.140;11.636;2023-04-09T05:58:58;5.80;56.10
9425;DHT22;17139;52.140;11.636;2023-04-09T06:01:26;5.90;56.20
9425;DHT22;17139;52.140;11.636;2023-04-09T06:03:56;6.10;56.50
9425;DHT22;17139;52.140;11.636;2023-04-09T06:06:23;6.50;55.30
9425;DHT22;17139;52.140;11.636;2023-04-09T06:08:50;6.50;54.70
9425;DHT22;17139;52.140;11.636;2023-04-09T06:11:17;6.50;54.80
9425;DHT22;17139;52.140;11.636;2023-04-09T06:13:44;6.40;54.90
9425;DHT22;17139;52.140;11.636;2023-04-09T06:16:11;6.40;55.00
9425;DHT22;17139;52.140;11.636;2023-04-09T06:18:39;6.50;55.20
9425;DHT22;17139;52.140;11.636;2023-04-09T06:21:08;6.50;55.10
9425;DHT22;17139;52.140;11.636;2023-04-09T06:23:36;6.60;55.30
9425;DHT22;17139;52.140;11.636;2023-04-09T06:26:03;6.60;55.10
9425;DHT22;17139;52.140;11.636;2023-04-09T06:28:31;6.70;55.00
9425;DHT22;17139;52.140;11.636;2023-04-09T06:30:58;6.80;54.90
9425;DHT22;17139;52.140;11.636;2023-04-09T06:33:26;6.80;54.90
9425;DHT22;17139;52.140;11.636;2023-04-09T06:35:54;6.80;54.70
9425;DHT22;17139;52.140;11.636;2023-04-09T06:38:22;6.80;54.70
9425;DHT22;17139;52.140;11.636;2023-04-09T06:40:49;6.80;54.80
9425;DHT22;17139;52.140;11.636;2023-04-09T06:43:16;6.70;54.80
9425;DHT22;17139;52.140;11.636;2023-04-09T06:45:43;7.10;54.80
9425;DHT22;17139;52.140;11.636;2023-04-09T06:48:11;7.20;54.40
9425;DHT22;17139;52.140;11.636;2023-04-09T06:50:38;7.10;54.50
9425;DHT22;17139;52.140;11.636;2023-04-09T06:53:06;7.20;54.70
9425;DHT22;17139;52.140;11.636;2023-04-09T06:55:34;7.20;54.40
9425;DHT22;17139;52.140;11.636;2023-04-09T06:58:02;7.90;54.20
9425;DHT22;17139;52.140;11.636;2023-04-09T07:00:29;7.80;54.00
9425;DHT22;17139;52.140;11.636;2023-04-09T07:02:56;7.70;54.30
9425;DHT22;17139;52.140;11.636;2023-04-09T07:05:24;7.70;54.40
9425;DHT22;17139;52.140;11.636;2023-04-09T07:07:51;7.80;54.60
9425;DHT22;17139;52.140;11.636;2023-04-09T07:10:18;7.90;54.60
9425;DHT22;17139;52.140;11.636;2023-04-09T07:12:46;8.00;54.50
9425;DHT22;17139;52.140;11.636;2023-04-09T07:15:14;8.10;54.40
9425;DHT22;17139;52.140;11.636;2023-04-09T07:17:41;8.10;54.30
9425;DHT22;17139;52.140;11.636;2023-04-09T07:20:09;8.20;54.20
9425;DHT22;17139;52.140;11.636;2023-04-09T07:22:36;8.20;54.20
9425;DHT22;17139;52.140;11.636;2023-04-09T07:25:04;8.10;54.30
9425;DHT22;17139;52.140;11.636;2023-04-09T07:27:32;8.10;54.50
9425;DHT22;17139;52.140;11.636;2023-04-09T07:30:00;8.10;54.60
9425;DHT22;17139;52.140;11.636;2023-04-09T07:32:28;8.00;54.60
9425;DHT22;17139;52.140;11.636;2023-04-09T07:34:55;8.00;54.70
9425;DHT22;17139;52.140;11.636;2023-04-09T07:37:25;7.90;54.70
9425;DHT22;17139;52.140;11.636;2023-04-09T07:39:52;8.10;54.60
9425;DHT22;17139;52.140;11.636;2023-04-09T07:42:20;8.30;54.30
9425;DHT22;17139;52.140;11.636;2023-04-09T07:44:47;8.10;54.20
9425;DHT22;17139;52.140;11.636;2023-04-09T07:47:16;7.90;54.40
9425;DHT22;17139;52.140;11.636;2023-04-09T07:49:43;7.70;54.60
9425;DHT22;17139;52.140;11.636;2023-04-09T07:52:11;8.40;53.80
9425;DHT22;17139;52.140;11.636;2023-04-09T07:54:39;8.10;53.70
9425;DHT22;17139;52.140;11.636;2023-04-09T07:57:07;7.80;54.30
9425;DHT22;17139;52.140;11.636;2023-04-09T07:59:35;7.80;54.70
9425;DHT22;17139;52.140;11.636;2023-04-09T08:02:02;7.70;54.60
9425;DHT22;17139;52.140;11.636;2023-04-09T08:04:31;7.60;54.80
9425;DHT22;17139;52.140;11.636;2023-04-09T08:06:58;7.60;54.80
9425;DHT22;17139;52.140;11.636;2023-04-09T08:09:26;7.50;54.80
9425;DHT22;17139;52.140;11.636;2023-04-09T08:11:53;7.50;54.80
9425;DHT22;17139;52.140;11.636;2023-04-09T08:14:20;7.60;54.90
9425;DHT22;17139;52.140;11.636;2023-04-09T08:16:48;7.70;54.90
9425;DHT22;17139;52.140;11.636;2023-04-09T08:19:16;7.70;54.70
9425;DHT22;17139;52.140;11.636;2023-04-09T08:21:46;7.70;54.60
9425;DHT22;17139;52.140;11.636;2023-04-09T08:24:14;7.80;54.60
9425;DHT22;17139;52.140;11.636;2023-04-09T08:26:42;7.80;54.60
9425;DHT22;17139;52.140;11.636;2023-04-09T08:29:10;7.90;54.50
9425;DHT22;17139;52.140;11.636;2023-04-09T08:31:38;8.60;53.50
9425;DHT22;17139;52.140;11.636;2023-04-09T08:34:05;9.00;52.70
9425;DHT22;17139;52.140;11.636;2023-04-09T08:36:33;8.60;52.90
9425;DHT22;17139;52.140;11.636;2023-04-09T08:39:02;8.30;53.60
9425;DHT22;17139;52.140;11.636;2023-04-09T08:41:30;8.20;54.00
9425;DHT22;17139;52.140;11.636;2023-04-09T08:43:57;8.10;54.30
9425;DHT22;17139;52.140;11.636;2023-04-09T08:46:25;8.10;54.40
9425;DHT22;17139;52.140;11.636;2023-04-09T08:48:53;8.20;54.40
9425;DHT22;17139;52.140;11.636;2023-04-09T08:51:21;8.10;54.30
9425;DHT22;17139;52.140;11.636;2023-04-09T08:53:55;8.20;54.40
9425;DHT22;17139;52.140;11.636;2023-04-09T08:56:24;8.20;54.40
9425;DHT22;17139;52.140;11.636;2023-04-09T08:58:52;8.20;54.30
9425;DHT22;17139;52.140;11.636;2023-04-09T09:01:23;8.30;54.40
9425;DHT22;17139;52.140;11.636;2023-04-09T09:03:54;8.40;54.40
9425;DHT22;17139;52.140;11.636;2023-04-09T09:06:22;8.50;54.40
9425;DHT22;17139;52.140;11.636;2023-04-09T09:09:06;8.50;54.30
9425;DHT22;17139;52.140;11.636;2023-04-09T09:11:35;9.00;53.30
9425;DHT22;17139;52.140;11.636;2023-04-09T09:14:04;9.60;52.20
9425;DHT22;17139;52.140;11.636;2023-04-09T09:16:32;9.30;52.60
9425;DHT22;17139;52.140;11.636;2023-04-09T09:19:01;9.20;53.80
9425;DHT22;17139;52.140;11.636;2023-04-09T09:21:28;9.10;53.50
9425;DHT22;17139;52.140;11.636;2023-04-09T09:23:56;9.10;53.70
9425;DHT22;17139;52.140;11.636;2023-04-09T09:26:24;9.10;53.70
9425;DHT22;17139;52.140;11.636;2023-04-09T09:28:54;9.10;53.70
9425;DHT22;17139;52.140;11.636;2023-04-09T09:31:24;9.30;53.70
9425;DHT22;17139;52.140;11.636;2023-04-09T09:33:51;9.30;53.60
9425;DHT22;17139;52.140;11.636;2023-04-09T09:36:31;9.30;53.70
9425;DHT22;17139;52.140;11.636;2023-04-09T09:39:00;9.90;52.70
9425;DHT22;17139;52.140;11.636;2023-04-09T09:41:35;9.70;53.00
9425;DHT22;17139;52.140;11.636;2023-04-09T09:44:04;9.60;53.20
9425;DHT22;17139;52.140;11.636;2023-04-09T09:46:34;9.60;53.50
9425;DHT22;17139;52.140;11.636;2023-04-09T09:49:01;9.60;53.50
9425;DHT22;17139;52.140;11.636;2023-04-09T09:51:31;9.50;53.40
9425;DHT22;17139;52.140;11.636;2023-04-09T09:53:58;9.50;53.50
9425;DHT22;17139;52.140;11.636;2023-04-09T09:56:30;9.50;53.60
9425;DHT22;17139;52.140;11.636;2023-04-09T09:59:06;9.60;53.70
9425;DHT22;17139;52.140;11.636;2023-04-09T10:01:36;10.10;52.70
9425;DHT22;17139;52.140;11.636;2023-04-09T10:04:05;10.80;51.50
9425;DHT22;17139;52.140;11.636;2023-04-09T10:06:39;10.50;52.00
9425;DHT22;17139;52.140;11.636;2023-04-09T10:09:09;10.30;52.50
9425;DHT22;17139;52.140;11.636;2023-04-09T10:11:37;10.20;52.80
9425;DHT22;17139;52.140;11.636;2023-04-09T10:14:08;10.10;53.00
9425;DHT22;17139;52.140;11.636;2023-04-09T10:16:36;10.10;53.20
9425;DHT22;17139;52.140;11.636;2023-04-09T10:19:04;10.10;53.30
9425;DHT22;17139;52.140;11.636;2023-04-09T10:21:38;10.10;53.40
9425;DHT22;17139;52.140;11.636;2023-04-09T10:24:08;10.60;52.40
9425;DHT22;17139;52.140;11.636;2023-04-09T10:26:39;10.50;52.70
9425;DHT22;17139;52.140;11.636;2023-04-09T10:29:09;10.40;53.00
9425;DHT22;17139;52.140;11.636;2023-04-09T10:31:51;10.40;53.00
9425;DHT22;17139;52.140;11.636;2023-04-09T10:34:20;10.40;53.20
9425;DHT22;17139;52.140;11.636;2023-04-09T10:36:51;10.40;53.30
9425;DHT22;17139;52.140;11.636;2023-04-09T10:39:19;10.40;53.30
9425;DHT22;17139;52.140;11.636;2023-04-09T10:41:47;10.40;53.30
9425;DHT22;17139;52.140;11.636;2023-04-09T10:44:24;10.40;53.40
9425;DHT22;17139;52.140;11.636;2023-04-09T10:46:53;10.40;53.30
9425;DHT22;17139;52.140;11.636;2023-04-09T10:49:21;11.10;51.00
9425;DHT22;17139;52.140;11.636;2023-04-09T10:51:52;10.90;51.90
9425;DHT22;17139;52.140;11.636;2023-04-09T10:54:43;10.80;52.50
9425;DHT22;17139;52.140;11.636;2023-04-09T10:57:12;10.80;52.90
9425;DHT22;17139;52.140;11.636;2023-04-09T10:59:43;10.70;53.10
9425;DHT22;17139;52.140;11.636;2023-04-09T11:05:26;10.80;53.20
9425;DHT22;17139;52.140;11.636;2023-04-09T11:08:02;10.80;53.40
9425;DHT22;17139;52.140;11.636;2023-04-09T11:10:30;11.30;52.20
9425;DHT22;17139;52.140;11.636;2023-04-09T11:12:58;11.10;52.50
9425;DHT22;17139;52.140;11.636;2023-04-09T11:15:27;11.00;52.40
9425;DHT22;17139;52.140;11.636;2023-04-09T11:17:54;10.90;52.80
9425;DHT22;17139;52.140;11.636;2023-04-09T11:20:25;10.90;53.10
9425;DHT22;17139;52.140;11.636;2023-04-09T11:22:53;10.80;53.30
9425;DHT22;17139;52.140;11.636;2023-04-09T11:25:22;10.80;53.40
9425;DHT22;17139;52.140;11.636;2023-04-09T11:27:50;10.90;53.50
9425;DHT22;17139;52.140;11.636;2023-04-09T11:30:18;10.90;53.40
9425;DHT22;17139;52.140;11.636;2023-04-09T11:32:47;11.00;53.30
9425;DHT22;17139;52.140;11.636;2023-04-09T11:35:16;11.00;53.20
9425;DHT22;17139;52.140;11.636;2023-04-09T11:37:44;11.10;53.30
9425;DHT22;17139;52.140;11.636;2023-04-09T11:40:15;11.40;52.20
9425;DHT22;17139;52.140;11.636;2023-04-09T11:42:43;11.80;51.30
9425;DHT22;17139;52.140;11.636;2023-04-09T11:45:11;11.60;52.00
9425;DHT22;17139;52.140;11.636;2023-04-09T11:47:41;11.50;52.50
9425;DHT22;17139;52.140;11.636;2023-04-09T11:50:11;11.30;52.70
9425;DHT22;17139;52.140;11.636;2023-04-09T11:52:39;11.30;53.00
9425;DHT22;17139;52.140;11.636;2023-04-09T11:55:08;11.20;53.20
9425;DHT22;17139;52.140;11.636;2023-04-09T11:57:40;11.20;53.20
9425;DHT22;17139;52.140;11.636;2023-04-09T12:00:10;11.20;53.40
9425;DHT22;17139;52.140;11.636;2023-04-09T12:02:39;11.30;53.20
9425;DHT22;17139;52.140;11.636;2023-04-09T12:05:10;11.40;53.20
9425;DHT22;17139;52.140;11.636;2023-04-09T12:07:39;11.40;53.10
9425;DHT22;17139;52.140;11.636;2023-04-09T12:10:07;11.40;53.20
9425;DHT22;17139;52.140;11.636;2023-04-09T12:12:42;11.40;53.20
9425;DHT22;17139;52.140;11.636;2023-04-09T12:15:17;11.50;53.20
9425;DHT22;17139;52.140;11.636;2023-04-09T12:17:48;11.60;53.20
9425;DHT22;17139;52.140;11.636;2023-04-09T12:20:31;11.70;53.20
9425;DHT22;17139;52.140;11.636;2023-04-09T12:22:59;11.80;53.10
9425;DHT22;17139;52.140;11.636;2023-04-09T12:25:28;11.80;53.10
9425;DHT22;17139;52.140;11.636;2023-04-09T12:27:56;11.80;53.10
9425;DHT22;17139;52.140;11.636;2023-04-09T12:30:23;11.80;53.10
9425;DHT22;17139;52.140;11.636;2023-04-09T12:32:52;12.00;52.60
9425;DHT22;17139;52.140;11.636;2023-04-09T12:35:20;12.20;51.60
9425;DHT22;17139;52.140;11.636;2023-04-09T12:37:49;12.10;52.30
9425;DHT22;17139;52.140;11.636;2023-04-09T12:40:17;12.10;52.60
9425;DHT22;17139;52.140;11.636;2023-04-09T12:42:45;12.10;52.90
9425;DHT22;17139;52.140;11.636;2023-04-09T12:45:14;12.00;52.80
9425;DHT22;17139;52.140;11.636;2023-04-09T12:47:41;12.40;51.80
9425;DHT22;17139;52.140;11.636;2023-04-09T12:50:10;12.60;51.30
9425;DHT22;17139;52.140;11.636;2023-04-09T12:52:38;12.40;52.00
9425;DHT22;17139;52.140;11.636;2023-04-09T12:55:08;12.30;52.10
9425;DHT22;17139;52.140;11.636;2023-04-09T12:57:36;12.30;52.40
9425;DHT22;17139;52.140;11.636;2023-04-09T13:00:05;12.20;52.60
9425;DHT22;17139;52.140;11.636;2023-04-09T13:02:33;12.30;52.90
9425;DHT22;17139;52.140;11.636;2023-04-09T13:05:00;12.40;52.90
9425;DHT22;17139;52.140;11.636;2023-04-09T13:07:27;12.50;52.80
9425;DHT22;17139;52.140;11.636;2023-04-09T13:09:55;12.50;52.70
9425;DHT22;17139;52.140;11.636;2023-04-09T13:12:24;12.50;52.70
9425;DHT22;17139;52.140;11.636;2023-04-09T13:14:53;12.50;52.60
9425;DHT22;17139;52.140;11.636;2023-04-09T13:17:20;12.90;50.80
9425;DHT22;17139;52.140;11.636;2023-04-09T13:19:48;13.30;49.40
9425;DHT22;17139;52.140;11.636;2023-04-09T13:22:15;13.10;51.50
9425;DHT22;17139;52.140;11.636;2023-04-09T13:24:42;12.90;51.40
9425;DHT22;17139;52.140;11.636;2023-04-09T13:27:10;12.80;51.90
9425;DHT22;17139;52.140;11.636;2023-04-09T13:29:38;12.70;52.30
9425;DHT22;17139;52.140;11.636;2023-04-09T13:32:06;12.60;52.30
9425;DHT22;17139;52.140;11.636;2023-04-09T13:34:35;12.60;52.50
9425;DHT22;17139;52.140;11.636;2023-04-09T13:37:02;12.60;52.60
9425;DHT22;17139;52.140;11.636;2023-04-09T13:39:30;12.80;51.40
9425;DHT22;17139;52.140;11.636;2023-04-09T13:41:57;12.70;51.90
9425;DHT22;17139;52.140;11.636;2023-04-09T13:44:25;12.70;52.20
9425;DHT22;17139;52.140;11.636;2023-04-09T13:46:54;12.60;52.30
9425;DHT22;17139;52.140;11.636;2023-04-09T13:49:21;12.50;52.40
9425;DHT22;17139;52.140;11.636;2023-04-09T13:51:48;12.50;52.60
9425;DHT22;17139;52.140;11.636;2023-04-09T13:54:17;12.50;52.60
9425;DHT22;17139;52.140;11.636;2023-04-09T13:56:44;12.50;52.60
9425;DHT22;17139;52.140;11.636;2023-04-09T13:59:12;12.50;52.50
9425;DHT22;17139;52.140;11.636;2023-04-09T14:01:39;12.60;52.60
9425;DHT22;17139;52.140;11.636;2023-04-09T14:04:08;12.50;52.40
9425;DHT22;17139;52.140;11.636;2023-04-09T14:06:35;12.70;52.40
9425;DHT22;17139;52.140;11.636;2023-04-09T14:09:03;12.80;51.70
9425;DHT22;17139;52.140;11.636;2023-04-09T14:11:30;12.90;52.00
9425;DHT22;17139;52.140;11.636;2023-04-09T14:13:57;12.90;52.00
9425;DHT22;17139;52.140;11.636;2023-04-09T14:16:24;12.90;52.00
9425;DHT22;17139;52.140;11.636;2023-04-09T14:18:52;12.90;52.20
9425;DHT22;17139;52.140;11.636;2023-04-09T14:21:21;12.90;52.30
9425;DHT22;17139;52.140;11.636;2023-04-09T14:23:48;12.90;52.30
9425;DHT22;17139;52.140;11.636;2023-04-09T14:26:16;12.90;52.20
9425;DHT22;17139;52.140;11.636;2023-04-09T14:28:43;13.00;52.20
9425;DHT22;17139;52.140;11.636;2023-04-09T14:31:12;13.50;49.30
9425;DHT22;17139;52.140;11.636;2023-04-09T14:33:40;13.30;50.50
9425;DHT22;17139;52.140;11.636;2023-04-09T14:36:07;13.20;51.20
9425;DHT22;17139;52.140;11.636;2023-04-09T14:38:36;13.50;49.70
9425;DHT22;17139;52.140;11.636;2023-04-09T14:41:04;13.40;50.70
9425;DHT22;17139;52.140;11.636;2023-04-09T14:43:31;13.30;51.10
9425;DHT22;17139;52.140;11.636;2023-04-09T14:45:58;13.20;51.30
9425;DHT22;17139;52.140;11.636;2023-04-09T14:48:26;14.00;47.50
9425;DHT22;17139;52.140;11.636;2023-04-09T14:50:53;13.80;49.50
9425;DHT22;17139;52.140;11.636;2023-04-09T14:53:20;14.30;47.20
9425;DHT22;17139;52.140;11.636;2023-04-09T14:55:49;14.30;47.30
9425;DHT22;17139;52.140;11.636;2023-04-09T14:58:16;14.60;46.50
9425;DHT22;17139;52.140;11.636;2023-04-09T15:00:44;14.20;48.40
9425;DHT22;17139;52.140;11.636;2023-04-09T15:03:11;14.60;46.50
9425;DHT22;17139;52.140;11.636;2023-04-09T15:05:39;14.70;45.80
9425;DHT22;17139;52.140;11.636;2023-04-09T15:08:06;14.30;47.80
9425;DHT22;17139;52.140;11.636;2023-04-09T15:10:35;14.00;48.90
9425;DHT22;17139;52.140;11.636;2023-04-09T15:13:03;13.70;49.40
9425;DHT22;17139;52.140;11.636;2023-04-09T15:15:31;13.60;50.00
9425;DHT22;17139;52.140;11.636;2023-04-09T15:17:58;13.50;50.10
9425;DHT22;17139;52.140;11.636;2023-04-09T15:20:30;13.40;50.20
9425;DHT22;17139;52.140;11.636;2023-04-09T15:22:57;13.30;50.40
9425;DHT22;17139;52.140;11.636;2023-04-09T15:25:24;13.30;50.60
9425;DHT22;17139;52.140;11.636;2023-04-09T15:27:52;13.20;50.70
9425;DHT22;17139;52.140;11.636;2023-04-09T15:30:20;13.20;50.90
9425;DHT22;17139;52.140;11.636;2023-04-09T15:32:48;13.20;50.90
9425;DHT22;17139;52.140;11.636;2023-04-09T15:35:15;13.20;51.00
9425;DHT22;17139;52.140;11.636;2023-04-09T15:37:48;13.10;51.00
9425;DHT22;17139;52.140;11.636;2023-04-09T15:40:16;13.10;51.00
9425;DHT22;17139;52.140;11.636;2023-04-09T15:42:43;13.10;51.00
9425;DHT22;17139;52.140;11.636;2023-04-09T15:45:12;13.10;51.00
9425;DHT22;17139;52.140;11.636;2023-04-09T15:47:42;13.00;51.00
9425;DHT22;17139;52.140;11.636;2023-04-09T15:50:10;13.00;51.20